El Moro, Colorado
Current Conditions -  °F | °C
As of 10:54 PM on Sunday 25 Jan 2015 (Local Time) from KTAD Reporting Station
Clear Clear  
Wind Chill: 28°   Ceiling: Unl
Heat Index: 36°   Visibility: 10mi
Dew Point: 25°   Wind: 10mph
Humidity: 64%   Direction: 260°W
Pressure: 30.25"   Gusts: NA
Location:  37.1661°N, 104.486°W
Report Text: KTAD 260554Z AUTO 26009KT 10SM CLR 02/M04 A3025 RMK AO2 SLP234 T00221039 10078 20017 53005
Loading
Personal Weather Stations






























Interactive Weather Map New forecast layout! Learn more

10-Day Weather Forecast

Advertisements
Track Severe Weather on mobile